createdAt,value
2022-08-19T06:46:10.090Z,75.87
2022-08-19T06:47:14.562Z,75.87
2022-08-19T06:48:11.643Z,75.37
2022-08-19T06:49:11.061Z,75.56
2022-08-19T06:50:10.637Z,75.26
2022-08-19T06:51:10.800Z,74.66
2022-08-19T06:52:10.600Z,74.33
2022-08-19T06:53:11.590Z,74.43
2022-08-19T06:54:19.441Z,74.33
2022-08-19T06:55:10.511Z,74.83
2022-08-19T06:56:10.563Z,74.13
2022-08-19T06:57:11.661Z,74.03
2022-08-19T06:58:11.530Z,74.39
2022-08-19T06:59:10.502Z,73.29
2022-08-19T07:00:12.800Z,72.99
2022-08-19T07:01:10.487Z,73.49
2022-08-19T07:02:10.600Z,73.09
2022-08-19T07:03:13.115Z,73.53
2022-08-19T07:04:12.176Z,73.72
2022-08-19T07:05:10.423Z,73.93
2022-08-19T07:06:21.323Z,74.49
2022-08-19T07:07:19.917Z,73.29
2022-08-19T07:08:10.478Z,73.29
2022-08-19T07:09:10.468Z,73.22
2022-08-19T07:10:10.452Z,73.53
2022-08-19T07:11:10.801Z,73.53
2022-08-19T07:12:10.514Z,73.89
2022-08-19T07:13:10.750Z,73.69
2022-08-19T07:14:19.139Z,74.29
2022-08-19T07:15:10.346Z,73.29
2022-08-19T07:16:10.316Z,74.79
2022-08-19T07:17:10.357Z,74.69
2022-08-19T07:18:11.609Z,72.99
2022-08-19T07:19:15.745Z,73.69
2022-08-19T07:20:10.443Z,73.79
2022-08-19T07:21:10.292Z,72.99
2022-08-19T07:22:13.081Z,73.19
2022-08-19T07:23:10.211Z,73.29
2022-08-19T07:24:10.155Z,73.53
2022-08-19T07:25:10.300Z,73.69
2022-08-19T07:26:10.302Z,73.72
2022-08-19T07:27:10.413Z,73.49
2022-08-19T07:28:18.953Z,73.19
2022-08-19T07:29:10.215Z,73.79
2022-08-19T07:30:11.635Z,73.29
2022-08-19T07:31:10.169Z,72.66
2022-08-19T07:32:11.666Z,72.56
2022-08-19T07:33:10.174Z,72.69
2022-08-19T07:34:10.157Z,72.36
2022-08-19T07:35:10.102Z,72.45
2022-08-19T07:36:10.811Z,72.36
2022-08-19T07:37:10.109Z,71.83
2022-08-19T07:38:09.995Z,71.83
2022-08-19T07:39:10.214Z,71.83
2022-08-19T07:40:10.042Z,71.52
2022-08-19T07:41:10.002Z,71.33
2022-08-19T07:42:10.027Z,70.99
2022-08-19T07:43:13.916Z,71.29
2022-08-19T07:44:10.036Z,71.29
2022-08-19T07:45:09.988Z,71.09
2022-08-19T07:47:47.435Z,71.29
2022-08-19T07:48:10.451Z,71.19
2022-08-19T07:49:10.013Z,71.29
2022-08-19T07:50:10.540Z,71.62
2022-08-19T07:51:10.128Z,71.52
2022-08-19T07:52:09.841Z,71.29
2022-08-19T07:53:11.620Z,71.39
2022-08-19T07:54:10.189Z,71.19
2022-08-19T07:55:13.592Z,71.09
2022-08-19T07:56:09.922Z,70.65
2022-08-19T07:57:09.836Z,70.36
2022-08-19T07:58:09.879Z,70.56
2022-08-19T07:59:11.075Z,70.26
2022-08-19T08:00:09.857Z,69.96
2022-08-19T08:01:09.821Z,69.82
2022-08-19T08:02:11.704Z,69.23
2022-08-19T08:04:02.580Z,69.23
2022-08-19T08:04:11.742Z,69.32
2022-08-19T08:05:10.238Z,68.90
2022-08-19T08:06:11.636Z,68.30
2022-08-19T08:07:09.973Z,67.96
2022-08-19T08:08:10.071Z,67.57
2022-08-19T08:09:12.057Z,67.24
2022-08-19T08:10:21.217Z,66.94
2022-08-19T08:11:10.129Z,66.94
2022-08-19T08:12:33.091Z,67.03
2022-08-19T08:13:11.107Z,66.53
2022-08-19T08:14:29.613Z,66.74
2022-08-19T08:15:12.490Z,66.74
2022-08-19T08:16:14.212Z,66.94
2022-08-19T08:17:11.242Z,66.34
2022-08-19T08:18:13.839Z,66.14
2022-08-19T08:19:20.430Z,66.20
2022-08-19T08:20:09.537Z,66.11
2022-08-19T08:21:09.614Z,65.78
2022-08-19T08:22:09.715Z,64.69
2022-08-19T08:23:09.498Z,64.88
2022-08-19T08:24:09.681Z,64.25
2022-08-19T08:25:09.704Z,64.03
2022-08-19T08:26:09.589Z,61.98
2022-08-19T08:27:11.363Z,60.66
2022-08-19T08:28:11.413Z,60.72
2022-08-19T08:29:12.743Z,60.72
2022-08-19T08:30:09.705Z,59.91
2022-08-19T08:31:09.878Z,59.31
2022-08-19T08:32:14.162Z,60.13
2022-08-19T08:33:09.534Z,59.91
2022-08-19T08:34:09.909Z,58.69
2022-08-19T08:35:09.542Z,58.78
2022-08-19T08:36:09.459Z,59.74
2022-08-19T08:37:09.666Z,60.83
2022-08-19T08:38:09.555Z,59.01
2022-08-19T08:39:09.468Z,57.34
2022-08-19T08:40:13.199Z,55.96
2022-08-19T08:41:09.449Z,56.48
2022-08-19T08:42:16.861Z,57.27
2022-08-19T08:43:10.972Z,60.85
2022-08-19T08:44:11.770Z,59.99
2022-08-19T08:45:33.472Z,60.49
2022-08-19T08:46:10.126Z,61.48
2022-08-19T08:47:09.360Z,60.78
2022-08-19T08:48:24.037Z,62.37
2022-08-19T08:49:09.622Z,62.60
2022-08-19T08:50:09.307Z,61.71
2022-08-19T08:51:09.350Z,60.09
2022-08-19T08:52:09.322Z,60.91
2022-08-19T08:53:09.308Z,60.31
2022-08-19T08:54:09.857Z,60.06
2022-08-19T08:55:10.500Z,58.32
2022-08-19T08:56:18.379Z,57.20
2022-08-19T09:09:56.177Z,58.73
2022-08-19T09:10:55.863Z,59.68
2022-08-19T09:11:55.636Z,59.45
2022-08-19T09:12:55.755Z,59.75
2022-08-19T09:13:55.795Z,58.62
2022-08-19T09:14:55.943Z,58.13
2022-08-19T09:15:55.776Z,58.03
2022-08-19T09:35:30.747Z,55.42
2022-08-19T09:36:34.680Z,54.90
2022-08-19T09:37:31.668Z,53.61
2022-08-19T09:38:32.015Z,54.13
2022-08-19T09:39:35.877Z,55.22
2022-08-19T09:40:34.397Z,54.53
2022-08-19T09:41:31.641Z,55.22
2022-08-19T09:42:35.306Z,54.00
2022-08-19T09:43:33.771Z,54.21
2022-08-19T09:44:31.619Z,53.73
2022-08-19T09:45:31.715Z,55.10
2022-08-19T09:46:32.393Z,53.28
2022-08-19T09:47:31.596Z,54.33
2022-08-19T09:48:31.549Z,54.10
2022-08-19T09:49:31.610Z,55.35
2022-08-19T09:50:38.886Z,55.05
2022-08-19T09:51:31.537Z,54.72
2022-08-19T09:52:32.705Z,53.61
2022-08-19T09:53:31.377Z,53.31
2022-08-19T09:54:31.444Z,52.59
2022-08-19T09:55:32.765Z,52.17
2022-08-19T09:56:31.811Z,50.85
2022-08-19T09:57:31.537Z,50.34
2022-08-19T09:58:31.573Z,49.44
2022-08-19T09:59:31.508Z,48.92
2022-08-19T10:00:31.389Z,49.19
2022-08-19T10:01:31.488Z,49.52
2022-08-19T10:02:31.536Z,48.82
2022-08-19T10:03:31.379Z,48.82
2022-08-19T10:04:31.392Z,48.46
2022-08-19T10:05:31.337Z,47.64
